sensor_id;sensor_type;location;lat;lon;timestamp;P1;durP1;ratioP1;P2;durP2;ratioP2
40601;SDS011;26310;50.278;19.032;2023-04-01T04:33:37;4.03;;;2.40;;
40601;SDS011;26310;50.278;19.032;2023-04-01T04:38:40;3.37;;;2.73;;
40601;SDS011;26310;50.278;19.032;2023-04-01T04:43:48;10.40;;;2.83;;
40601;SDS011;26310;50.278;19.032;2023-04-01T04:48:57;3.13;;;2.40;;
40601;SDS011;26310;50.278;19.032;2023-04-01T04:54:00;4.53;;;2.50;;
40601;SDS011;26310;50.278;19.032;2023-04-01T04:59:04;3.37;;;2.27;;
40601;SDS011;26310;50.278;19.032;2023-04-01T05:04:08;5.03;;;2.30;;
40601;SDS011;26310;50.278;19.032;2023-04-01T05:09:10;2.80;;;2.13;;
40601;SDS011;26310;50.278;19.032;2023-04-01T05:14:14;7.67;;;2.73;;
40601;SDS011;26310;50.278;19.032;2023-04-01T05:19:19;3.87;;;2.50;;
40601;SDS011;26310;50.278;19.032;2023-04-01T05:24:21;2.63;;;2.30;;
40601;SDS011;26310;50.278;19.032;2023-04-01T05:29:25;5.70;;;2.23;;
40601;SDS011;26310;50.278;19.032;2023-04-01T05:34:28;2.93;;;2.47;;
40601;SDS011;26310;50.278;19.032;2023-04-01T05:39:30;2.67;;;1.80;;
40601;SDS011;26310;50.278;19.032;2023-04-01T05:44:34;4.97;;;2.27;;
40601;SDS011;26310;50.278;19.032;2023-04-01T05:49:37;2.37;;;2.00;;
40601;SDS011;26310;50.278;19.032;2023-04-01T05:54:40;4.63;;;2.37;;
40601;SDS011;26310;50.278;19.032;2023-04-01T05:59:42;2.97;;;2.20;;
40601;SDS011;26310;50.278;19.032;2023-04-01T06:04:46;4.00;;;2.63;;
40601;SDS011;26310;50.278;19.032;2023-04-01T06:09:49;3.10;;;2.47;;
40601;SDS011;26310;50.278;19.032;2023-04-01T06:20:24;4.73;;;2.50;;
40601;SDS011;26310;50.278;19.032;2023-04-01T06:52:35;3.03;;;2.23;;
40601;SDS011;26310;50.278;19.032;2023-04-01T06:57:47;5.50;;;2.37;;
40601;SDS011;26310;50.278;19.032;2023-04-01T07:02:57;2.97;;;2.10;;
40601;SDS011;26310;50.278;19.032;2023-04-01T07:08:22;3.70;;;2.67;;
40601;SDS011;26310;50.278;19.032;2023-04-01T07:19:03;2.13;;;1.93;;
40601;SDS011;26310;50.278;19.032;2023-04-01T07:24:16;4.47;;;2.60;;
40601;SDS011;26310;50.278;19.032;2023-04-01T07:29:26;3.17;;;2.07;;
40601;SDS011;26310;50.278;19.032;2023-04-01T07:34:31;4.67;;;2.00;;
40601;SDS011;26310;50.278;19.032;2023-04-01T07:39:59;3.53;;;2.13;;
40601;SDS011;26310;50.278;19.032;2023-04-01T08:01:35;3.83;;;2.03;;
40601;SDS011;26310;50.278;19.032;2023-04-01T08:06:57;7.63;;;2.80;;
40601;SDS011;26310;50.278;19.032;2023-04-01T08:23:07;4.17;;;2.10;;
40601;SDS011;26310;50.278;19.032;2023-04-01T08:28:37;4.50;;;2.13;;
40601;SDS011;26310;50.278;19.032;2023-04-01T08:33:48;4.40;;;2.60;;
40601;SDS011;26310;50.278;19.032;2023-04-01T08:38:53;2.20;;;2.00;;
40601;SDS011;26310;50.278;19.032;2023-04-01T08:44:04;2.83;;;1.97;;
40601;SDS011;26310;50.278;19.032;2023-04-01T08:49:44;5.00;;;2.20;;
40601;SDS011;26310;50.278;19.032;2023-04-01T09:06:06;3.13;;;2.37;;
40601;SDS011;26310;50.278;19.032;2023-04-01T09:27:45;4.13;;;2.37;;
40601;SDS011;26310;50.278;19.032;2023-04-01T09:55:25;3.20;;;2.70;;
40601;SDS011;26310;50.278;19.032;2023-04-01T10:05:52;2.60;;;2.20;;
40601;SDS011;26310;50.278;19.032;2023-04-01T10:49:33;3.63;;;1.97;;
40601;SDS011;26310;50.278;19.032;2023-04-01T11:17:00;1.93;;;1.73;;
40601;SDS011;26310;50.278;19.032;2023-04-01T11:27:42;1.90;;;1.57;;
40601;SDS011;26310;50.278;19.032;2023-04-01T11:33:22;2.27;;;1.40;;
40601;SDS011;26310;50.278;19.032;2023-04-01T11:38:54;3.43;;;1.73;;
40601;SDS011;26310;50.278;19.032;2023-04-01T11:44:24;2.43;;;1.50;;
40601;SDS011;26310;50.278;19.032;2023-04-01T11:49:42;1.77;;;1.20;;
40601;SDS011;26310;50.278;19.032;2023-04-01T11:55:18;2.13;;;1.67;;
40601;SDS011;26310;50.278;19.032;2023-04-01T12:10:47;2.03;;;1.60;;
40601;SDS011;26310;50.278;19.032;2023-04-01T12:16:08;4.07;;;1.60;;
40601;SDS011;26310;50.278;19.032;2023-04-01T12:26:59;3.23;;;1.90;;
40601;SDS011;26310;50.278;19.032;2023-04-01T12:43:44;2.30;;;1.77;;
40601;SDS011;26310;50.278;19.032;2023-04-01T13:10:44;1.90;;;1.50;;
40601;SDS011;26310;50.278;19.032;2023-04-01T13:16:03;2.50;;;1.43;;
40601;SDS011;26310;50.278;19.032;2023-04-01T13:21:47;2.33;;;1.50;;
40601;SDS011;26310;50.278;19.032;2023-04-01T13:43:02;2.93;;;1.97;;
40601;SDS011;26310;50.278;19.032;2023-04-01T14:53:54;5.50;;;4.00;;
40601;SDS011;26310;50.278;19.032;2023-04-01T15:04:35;8.13;;;3.20;;
40601;SDS011;26310;50.278;19.032;2023-04-01T15:42:14;3.20;;;2.20;;
40601;SDS011;26310;50.278;19.032;2023-04-01T15:47:44;3.47;;;2.70;;
40601;SDS011;26310;50.278;19.032;2023-04-01T16:19:37;5.27;;;3.00;;
40601;SDS011;26310;50.278;19.032;2023-04-01T16:25:07;4.30;;;3.33;;
40601;SDS011;26310;50.278;19.032;2023-04-01T16:30:23;6.43;;;3.37;;
40601;SDS011;26310;50.278;19.032;2023-04-01T16:35:41;6.27;;;3.30;;
40601;SDS011;26310;50.278;19.032;2023-04-01T16:45:57;5.00;;;3.07;;
40601;SDS011;26310;50.278;19.032;2023-04-01T16:51:16;7.77;;;4.47;;
40601;SDS011;26310;50.278;19.032;2023-04-01T16:56:27;6.70;;;3.70;;
40601;SDS011;26310;50.278;19.032;2023-04-01T17:01:49;8.30;;;4.27;;
40601;SDS011;26310;50.278;19.032;2023-04-01T17:06:58;7.03;;;4.00;;
40601;SDS011;26310;50.278;19.032;2023-04-01T17:12:25;7.83;;;4.57;;
40601;SDS011;26310;50.278;19.032;2023-04-01T17:18:03;5.50;;;3.83;;
40601;SDS011;26310;50.278;19.032;2023-04-01T18:06:18;7.63;;;5.27;;
40601;SDS011;26310;50.278;19.032;2023-04-01T18:16:43;12.47;;;6.63;;
40601;SDS011;26310;50.278;19.032;2023-04-01T18:21:54;14.50;;;7.93;;
40601;SDS011;26310;50.278;19.032;2023-04-01T18:27:04;8.00;;;4.67;;
40601;SDS011;26310;50.278;19.032;2023-04-01T18:32:15;9.40;;;6.67;;
40601;SDS011;26310;50.278;19.032;2023-04-01T18:59:10;8.83;;;5.70;;
40601;SDS011;26310;50.278;19.032;2023-04-01T19:04:26;5.00;;;3.87;;
40601;SDS011;26310;50.278;19.032;2023-04-01T19:09:52;7.60;;;4.13;;
40601;SDS011;26310;50.278;19.032;2023-04-01T19:15:10;8.03;;;4.63;;
40601;SDS011;26310;50.278;19.032;2023-04-01T19:20:38;5.50;;;3.57;;
40601;SDS011;26310;50.278;19.032;2023-04-01T19:25:59;5.53;;;3.73;;
40601;SDS011;26310;50.278;19.032;2023-04-01T19:36:27;6.57;;;3.67;;
40601;SDS011;26310;50.278;19.032;2023-04-01T19:41:40;4.53;;;3.70;;
40601;SDS011;26310;50.278;19.032;2023-04-01T19:46:55;4.63;;;2.70;;
40601;SDS011;26310;50.278;19.032;2023-04-01T19:52:20;5.63;;;2.77;;
40601;SDS011;26310;50.278;19.032;2023-04-01T19:57:34;4.43;;;2.63;;
40601;SDS011;26310;50.278;19.032;2023-04-01T20:02:52;3.07;;;2.40;;
40601;SDS011;26310;50.278;19.032;2023-04-01T20:08:03;6.53;;;4.00;;
40601;SDS011;26310;50.278;19.032;2023-04-01T20:13:21;6.80;;;3.97;;
40601;SDS011;26310;50.278;19.032;2023-04-01T20:18:34;6.63;;;4.97;;
40601;SDS011;26310;50.278;19.032;2023-04-01T20:23:42;5.40;;;4.37;;
40601;SDS011;26310;50.278;19.032;2023-04-01T20:29:11;5.13;;;3.80;;
40601;SDS011;26310;50.278;19.032;2023-04-01T20:34:49;7.73;;;4.27;;
40601;SDS011;26310;50.278;19.032;2023-04-01T20:40:12;6.07;;;3.60;;
40601;SDS011;26310;50.278;19.032;2023-04-01T20:45:41;6.27;;;4.00;;
40601;SDS011;26310;50.278;19.032;2023-04-01T20:50:53;9.13;;;4.20;;
40601;SDS011;26310;50.278;19.032;2023-04-01T21:06:44;5.17;;;3.00;;
40601;SDS011;26310;50.278;19.032;2023-04-01T21:27:50;6.53;;;3.83;;
40601;SDS011;26310;50.278;19.032;2023-04-01T22:05:22;10.27;;;5.80;;
40601;SDS011;26310;50.278;19.032;2023-04-01T22:10:41;9.73;;;6.43;;
40601;SDS011;26310;50.278;19.032;2023-04-01T22:16:09;10.47;;;5.00;;
40601;SDS011;26310;50.278;19.032;2023-04-01T22:21:32;11.20;;;7.00;;
40601;SDS011;26310;50.278;19.032;2023-04-01T22:32:08;12.63;;;6.83;;
40601;SDS011;26310;50.278;19.032;2023-04-01T22:47:46;13.20;;;7.93;;
40601;SDS011;26310;50.278;19.032;2023-04-01T22:58:18;14.73;;;8.03;;
40601;SDS011;26310;50.278;19.032;2023-04-01T23:03:28;12.90;;;7.90;;
40601;SDS011;26310;50.278;19.032;2023-04-01T23:14:06;13.07;;;7.83;;
40601;SDS011;26310;50.278;19.032;2023-04-01T23:19:27;15.43;;;8.67;;
40601;SDS011;26310;50.278;19.032;2023-04-01T23:24:48;14.07;;;8.20;;
40601;SDS011;26310;50.278;19.032;2023-04-01T23:29:56;14.70;;;8.93;;
